Terminal Aerodrome Forecast
Issued by NWS

Home | Current Version | Previous Version | Text Only | Print | Product List | Glossary On
Versions: 1 2 3 4 5 6 7 8 9 10 11 12 13
000
FTUS43 KTOP 061720
TAFFOE
TAF
KFOE 061720Z 0618/0718 20011G19KT P6SM SKC
     FM070100 18009KT P6SM SCT200
     FM071500 22013KT P6SM SCT200=

USA.gov is the U.S. government's official web portal to all federal, state and local government web resources and services.